sensor_id;sensor_type;location;lat;lon;timestamp;temperature;humidity
20654;DHT22;21083;50.898;4.902;2022-08-01T00:02:19;21.40;99.90
20654;DHT22;21083;50.898;4.902;2022-08-01T00:04:46;21.50;99.90
20654;DHT22;21083;50.898;4.902;2022-08-01T00:07:14;21.50;99.90
20654;DHT22;21083;50.898;4.902;2022-08-01T00:09:41;21.30;99.90
20654;DHT22;21083;50.898;4.902;2022-08-01T00:12:08;21.20;99.90
20654;DHT22;21083;50.898;4.902;2022-08-01T00:14:36;21.30;99.90
20654;DHT22;21083;50.898;4.902;2022-08-01T00:17:03;21.30;99.90
20654;DHT22;21083;50.898;4.902;2022-08-01T00:19:30;21.40;99.90
20654;DHT22;21083;50.898;4.902;2022-08-01T00:21:57;21.60;99.90
20654;DHT22;21083;50.898;4.902;2022-08-01T00:24:26;21.50;99.90
20654;DHT22;21083;50.898;4.902;2022-08-01T00:26:53;21.50;99.90
20654;DHT22;21083;50.898;4.902;2022-08-01T00:29:19;21.40;99.90
20654;DHT22;21083;50.898;4.902;2022-08-01T00:31:46;21.50;99.90
20654;DHT22;21083;50.898;4.902;2022-08-01T00:34:13;21.40;99.90
20654;DHT22;21083;50.898;4.902;2022-08-01T00:36:40;21.40;99.90
20654;DHT22;21083;50.898;4.902;2022-08-01T00:39:07;21.30;99.90
20654;DHT22;21083;50.898;4.902;2022-08-01T00:41:35;21.20;99.90
20654;DHT22;21083;50.898;4.902;2022-08-01T00:44:04;21.20;99.90
20654;DHT22;21083;50.898;4.902;2022-08-01T00:46:31;21.30;99.90
20654;DHT22;21083;50.898;4.902;2022-08-01T00:48:59;21.20;99.90
20654;DHT22;21083;50.898;4.902;2022-08-01T00:51:26;21.40;99.90
20654;DHT22;21083;50.898;4.902;2022-08-01T00:53:54;21.40;99.90
20654;DHT22;21083;50.898;4.902;2022-08-01T00:56:23;21.30;99.90
20654;DHT22;21083;50.898;4.902;2022-08-01T00:58:52;21.20;99.90
20654;DHT22;21083;50.898;4.902;2022-08-01T01:01:19;21.40;99.90
20654;DHT22;21083;50.898;4.902;2022-08-01T01:03:47;21.60;99.90
20654;DHT22;21083;50.898;4.902;2022-08-01T01:06:28;21.60;99.90
20654;DHT22;21083;50.898;4.902;2022-08-01T01:12:00;21.20;99.90
20654;DHT22;21083;50.898;4.902;2022-08-01T01:14:40;21.10;99.90
20654;DHT22;21083;50.898;4.902;2022-08-01T01:17:13;20.90;99.90
20654;DHT22;21083;50.898;4.902;2022-08-01T01:19:51;21.00;99.90
20654;DHT22;21083;50.898;4.902;2022-08-01T01:22:33;21.20;99.90
20654;DHT22;21083;50.898;4.902;2022-08-01T01:25:09;21.20;99.90
20654;DHT22;21083;50.898;4.902;2022-08-01T01:27:49;21.20;99.90
20654;DHT22;21083;50.898;4.902;2022-08-01T01:30:19;21.20;99.90
20654;DHT22;21083;50.898;4.902;2022-08-01T01:32:50;21.30;99.90
20654;DHT22;21083;50.898;4.902;2022-08-01T01:35:24;21.30;99.90
20654;DHT22;21083;50.898;4.902;2022-08-01T01:38:07;21.20;99.90
20654;DHT22;21083;50.898;4.902;2022-08-01T01:40:36;21.30;99.90
20654;DHT22;21083;50.898;4.902;2022-08-01T01:43:10;21.30;99.90
20654;DHT22;21083;50.898;4.902;2022-08-01T01:45:39;21.20;99.90
20654;DHT22;21083;50.898;4.902;2022-08-01T01:48:07;21.20;99.90
20654;DHT22;21083;50.898;4.902;2022-08-01T01:50:36;21.30;99.90
20654;DHT22;21083;50.898;4.902;2022-08-01T01:53:05;21.30;99.90
20654;DHT22;21083;50.898;4.902;2022-08-01T01:55:34;21.30;99.90
20654;DHT22;21083;50.898;4.902;2022-08-01T01:58:02;21.30;99.90
20654;DHT22;21083;50.898;4.902;2022-08-01T02:00:30;21.30;99.90
20654;DHT22;21083;50.898;4.902;2022-08-01T02:03:01;21.40;99.90
20654;DHT22;21083;50.898;4.902;2022-08-01T02:05:29;21.40;99.90
20654;DHT22;21083;50.898;4.902;2022-08-01T02:07:57;21.40;99.90
20654;DHT22;21083;50.898;4.902;2022-08-01T02:10:24;21.30;99.90
20654;DHT22;21083;50.898;4.902;2022-08-01T02:12:52;21.40;99.90
20654;DHT22;21083;50.898;4.902;2022-08-01T02:15:19;21.30;99.90
20654;DHT22;21083;50.898;4.902;2022-08-01T02:17:48;21.30;99.90
20654;DHT22;21083;50.898;4.902;2022-08-01T02:20:17;21.40;99.90
20654;DHT22;21083;50.898;4.902;2022-08-01T02:22:47;21.40;99.90
20654;DHT22;21083;50.898;4.902;2022-08-01T02:25:21;21.40;99.90
20654;DHT22;21083;50.898;4.902;2022-08-01T02:27:54;21.40;99.90
20654;DHT22;21083;50.898;4.902;2022-08-01T02:30:24;21.40;99.90
20654;DHT22;21083;50.898;4.902;2022-08-01T02:32:59;21.20;99.90
20654;DHT22;21083;50.898;4.902;2022-08-01T02:35:31;21.30;99.90
20654;DHT22;21083;50.898;4.902;2022-08-01T02:38:01;21.30;99.90
20654;DHT22;21083;50.898;4.902;2022-08-01T02:40:31;21.20;99.90
20654;DHT22;21083;50.898;4.902;2022-08-01T02:42:59;21.20;99.90
20654;DHT22;21083;50.898;4.902;2022-08-01T02:45:27;21.20;99.90
20654;DHT22;21083;50.898;4.902;2022-08-01T02:47:59;21.30;99.90
20654;DHT22;21083;50.898;4.902;2022-08-01T02:50:30;21.10;99.90
20654;DHT22;21083;50.898;4.902;2022-08-01T02:52:59;21.20;99.90
20654;DHT22;21083;50.898;4.902;2022-08-01T02:55:27;21.40;99.90
20654;DHT22;21083;50.898;4.902;2022-08-01T02:57:55;21.50;99.90
20654;DHT22;21083;50.898;4.902;2022-08-01T03:00:23;21.40;99.90
20654;DHT22;21083;50.898;4.902;2022-08-01T03:02:52;21.30;99.90
20654;DHT22;21083;50.898;4.902;2022-08-01T03:05:21;21.20;99.90
20654;DHT22;21083;50.898;4.902;2022-08-01T03:07:51;21.30;99.90
20654;DHT22;21083;50.898;4.902;2022-08-01T03:10:19;21.30;99.90
20654;DHT22;21083;50.898;4.902;2022-08-01T03:12:49;21.30;99.90
20654;DHT22;21083;50.898;4.902;2022-08-01T03:15:17;21.30;99.90
20654;DHT22;21083;50.898;4.902;2022-08-01T03:17:47;21.20;99.90
20654;DHT22;21083;50.898;4.902;2022-08-01T03:20:15;21.20;99.90
20654;DHT22;21083;50.898;4.902;2022-08-01T03:22:44;21.10;99.90
20654;DHT22;21083;50.898;4.902;2022-08-01T03:25:13;21.20;99.90
20654;DHT22;21083;50.898;4.902;2022-08-01T03:27:43;21.30;99.90
20654;DHT22;21083;50.898;4.902;2022-08-01T03:30:12;21.40;99.90
20654;DHT22;21083;50.898;4.902;2022-08-01T03:32:39;21.30;99.90
20654;DHT22;21083;50.898;4.902;2022-08-01T03:35:07;21.10;99.90
20654;DHT22;21083;50.898;4.902;2022-08-01T03:37:36;21.20;99.90
20654;DHT22;21083;50.898;4.902;2022-08-01T03:40:09;20.90;99.90
20654;DHT22;21083;50.898;4.902;2022-08-01T03:42:43;20.90;99.90
20654;DHT22;21083;50.898;4.902;2022-08-01T03:45:19;20.80;99.90
20654;DHT22;21083;50.898;4.902;2022-08-01T03:47:49;20.70;99.90
20654;DHT22;21083;50.898;4.902;2022-08-01T03:50:21;20.90;99.90
20654;DHT22;21083;50.898;4.902;2022-08-01T03:52:50;21.00;99.90
20654;DHT22;21083;50.898;4.902;2022-08-01T03:55:18;20.90;99.90
20654;DHT22;21083;50.898;4.902;2022-08-01T03:57:48;20.90;99.90
20654;DHT22;21083;50.898;4.902;2022-08-01T04:00:16;20.80;99.90
20654;DHT22;21083;50.898;4.902;2022-08-01T04:02:46;20.70;99.90
20654;DHT22;21083;50.898;4.902;2022-08-01T04:05:14;20.70;99.90
20654;DHT22;21083;50.898;4.902;2022-08-01T04:07:45;20.50;99.90
20654;DHT22;21083;50.898;4.902;2022-08-01T04:10:13;20.60;99.90
20654;DHT22;21083;50.898;4.902;2022-08-01T04:12:40;20.40;99.90
20654;DHT22;21083;50.898;4.902;2022-08-01T04:15:08;20.40;99.90
20654;DHT22;21083;50.898;4.902;2022-08-01T04:17:35;20.40;99.90
20654;DHT22;21083;50.898;4.902;2022-08-01T04:20:02;20.60;99.90
20654;DHT22;21083;50.898;4.902;2022-08-01T04:22:30;20.70;99.90
20654;DHT22;21083;50.898;4.902;2022-08-01T04:24:58;20.60;99.90
20654;DHT22;21083;50.898;4.902;2022-08-01T04:27:28;20.70;99.90
20654;DHT22;21083;50.898;4.902;2022-08-01T04:29:58;20.80;99.90
20654;DHT22;21083;50.898;4.902;2022-08-01T04:32:28;20.80;99.90
20654;DHT22;21083;50.898;4.902;2022-08-01T04:34:58;20.80;99.90
20654;DHT22;21083;50.898;4.902;2022-08-01T04:37:26;20.80;99.90
20654;DHT22;21083;50.898;4.902;2022-08-01T04:39:55;20.60;99.90
20654;DHT22;21083;50.898;4.902;2022-08-01T04:42:23;20.70;99.90
20654;DHT22;21083;50.898;4.902;2022-08-01T04:44:50;20.70;99.90
20654;DHT22;21083;50.898;4.902;2022-08-01T04:47:18;20.40;99.90
20654;DHT22;21083;50.898;4.902;2022-08-01T04:49:46;20.30;99.90
20654;DHT22;21083;50.898;4.902;2022-08-01T04:52:13;20.40;99.90
20654;DHT22;21083;50.898;4.902;2022-08-01T04:54:43;20.60;99.90
20654;DHT22;21083;50.898;4.902;2022-08-01T04:57:12;20.50;99.90
20654;DHT22;21083;50.898;4.902;2022-08-01T04:59:43;20.40;99.90
20654;DHT22;21083;50.898;4.902;2022-08-01T05:02:13;20.50;99.90
20654;DHT22;21083;50.898;4.902;2022-08-01T05:04:41;20.50;99.90
20654;DHT22;21083;50.898;4.902;2022-08-01T05:07:11;20.60;99.90
20654;DHT22;21083;50.898;4.902;2022-08-01T05:09:40;20.60;99.90
20654;DHT22;21083;50.898;4.902;2022-08-01T05:12:08;20.70;99.90
20654;DHT22;21083;50.898;4.902;2022-08-01T05:14:36;20.70;99.90
20654;DHT22;21083;50.898;4.902;2022-08-01T05:17:05;20.70;99.90
20654;DHT22;21083;50.898;4.902;2022-08-01T05:19:32;20.70;99.90
20654;DHT22;21083;50.898;4.902;2022-08-01T05:22:00;20.70;99.90
20654;DHT22;21083;50.898;4.902;2022-08-01T05:24:28;20.50;99.90
20654;DHT22;21083;50.898;4.902;2022-08-01T05:26:56;20.50;99.90
20654;DHT22;21083;50.898;4.902;2022-08-01T05:29:23;20.50;99.90
20654;DHT22;21083;50.898;4.902;2022-08-01T05:31:51;20.50;99.90
20654;DHT22;21083;50.898;4.902;2022-08-01T05:34:19;20.60;99.90
20654;DHT22;21083;50.898;4.902;2022-08-01T05:36:46;20.70;99.90
20654;DHT22;21083;50.898;4.902;2022-08-01T05:39:14;20.80;99.90
20654;DHT22;21083;50.898;4.902;2022-08-01T05:41:42;20.70;99.90
20654;DHT22;21083;50.898;4.902;2022-08-01T05:44:09;20.80;99.90
20654;DHT22;21083;50.898;4.902;2022-08-01T05:46:36;20.90;99.90
20654;DHT22;21083;50.898;4.902;2022-08-01T05:49:04;21.00;99.90
20654;DHT22;21083;50.898;4.902;2022-08-01T05:51:33;20.90;99.90
20654;DHT22;21083;50.898;4.902;2022-08-01T05:54:00;20.80;99.90
20654;DHT22;21083;50.898;4.902;2022-08-01T05:56:28;21.00;99.90
20654;DHT22;21083;50.898;4.902;2022-08-01T05:58:56;21.00;99.90
20654;DHT22;21083;50.898;4.902;2022-08-01T06:01:23;20.90;99.90
20654;DHT22;21083;50.898;4.902;2022-08-01T06:03:50;20.90;99.90
20654;DHT22;21083;50.898;4.902;2022-08-01T06:06:17;21.00;99.90
20654;DHT22;21083;50.898;4.902;2022-08-01T06:08:44;21.10;99.90
20654;DHT22;21083;50.898;4.902;2022-08-01T06:11:11;21.20;99.90
20654;DHT22;21083;50.898;4.902;2022-08-01T06:13:38;21.20;99.90
20654;DHT22;21083;50.898;4.902;2022-08-01T06:16:06;21.30;99.90
20654;DHT22;21083;50.898;4.902;2022-08-01T06:18:34;21.20;99.90
20654;DHT22;21083;50.898;4.902;2022-08-01T06:21:01;21.30;99.90
20654;DHT22;21083;50.898;4.902;2022-08-01T06:23:28;21.30;99.90
20654;DHT22;21083;50.898;4.902;2022-08-01T06:25:55;21.40;99.90
20654;DHT22;21083;50.898;4.902;2022-08-01T06:28:22;21.40;99.90
20654;DHT22;21083;50.898;4.902;2022-08-01T06:30:48;21.40;99.90
20654;DHT22;21083;50.898;4.902;2022-08-01T06:33:17;21.50;99.90
20654;DHT22;21083;50.898;4.902;2022-08-01T06:35:44;21.60;99.90
20654;DHT22;21083;50.898;4.902;2022-08-01T06:38:10;21.70;99.90
20654;DHT22;21083;50.898;4.902;2022-08-01T06:40:37;21.80;99.90
20654;DHT22;21083;50.898;4.902;2022-08-01T06:43:04;21.70;99.90
20654;DHT22;21083;50.898;4.902;2022-08-01T06:45:31;21.70;99.90
20654;DHT22;21083;50.898;4.902;2022-08-01T06:47:58;21.70;99.90
20654;DHT22;21083;50.898;4.902;2022-08-01T06:50:26;21.80;99.90
20654;DHT22;21083;50.898;4.902;2022-08-01T06:52:53;21.90;99.90
20654;DHT22;21083;50.898;4.902;2022-08-01T06:55:20;21.80;99.90
20654;DHT22;21083;50.898;4.902;2022-08-01T06:57:48;21.80;99.90
20654;DHT22;21083;50.898;4.902;2022-08-01T07:00:16;21.90;99.90
20654;DHT22;21083;50.898;4.902;2022-08-01T07:02:44;21.90;99.90
20654;DHT22;21083;50.898;4.902;2022-08-01T07:05:11;22.00;99.90
20654;DHT22;21083;50.898;4.902;2022-08-01T07:07:40;21.80;99.90
20654;DHT22;21083;50.898;4.902;2022-08-01T07:10:07;21.90;99.90
20654;DHT22;21083;50.898;4.902;2022-08-01T07:12:35;21.90;99.90
20654;DHT22;21083;50.898;4.902;2022-08-01T07:15:04;22.10;99.90
20654;DHT22;21083;50.898;4.902;2022-08-01T07:17:31;22.30;99.90
20654;DHT22;21083;50.898;4.902;2022-08-01T07:19:58;22.40;99.90
20654;DHT22;21083;50.898;4.902;2022-08-01T07:22:25;22.40;99.90
20654;DHT22;21083;50.898;4.902;2022-08-01T07:24:53;22.40;99.90
20654;DHT22;21083;50.898;4.902;2022-08-01T07:27:20;22.40;99.90
20654;DHT22;21083;50.898;4.902;2022-08-01T07:29:47;22.40;99.90
20654;DHT22;21083;50.898;4.902;2022-08-01T07:32:14;22.60;99.90
20654;DHT22;21083;50.898;4.902;2022-08-01T07:34:40;22.30;99.90
20654;DHT22;21083;50.898;4.902;2022-08-01T07:37:07;22.00;99.90
20654;DHT22;21083;50.898;4.902;2022-08-01T07:39:34;22.10;99.90
20654;DHT22;21083;50.898;4.902;2022-08-01T07:42:02;22.10;99.90
20654;DHT22;21083;50.898;4.902;2022-08-01T07:44:29;22.10;99.90
20654;DHT22;21083;50.898;4.902;2022-08-01T07:46:56;22.30;99.90
20654;DHT22;21083;50.898;4.902;2022-08-01T07:49:23;22.40;99.90
20654;DHT22;21083;50.898;4.902;2022-08-01T07:51:50;22.60;99.90
20654;DHT22;21083;50.898;4.902;2022-08-01T07:54:17;22.70;99.90
20654;DHT22;21083;50.898;4.902;2022-08-01T07:56:44;22.80;99.90
20654;DHT22;21083;50.898;4.902;2022-08-01T07:59:12;22.80;99.90
20654;DHT22;21083;50.898;4.902;2022-08-01T08:01:39;22.90;99.90
20654;DHT22;21083;50.898;4.902;2022-08-01T08:04:06;23.00;99.90
20654;DHT22;21083;50.898;4.902;2022-08-01T08:06:33;23.10;99.90
20654;DHT22;21083;50.898;4.902;2022-08-01T08:09:00;23.20;99.90
20654;DHT22;21083;50.898;4.902;2022-08-01T08:11:27;23.20;99.90
20654;DHT22;21083;50.898;4.902;2022-08-01T08:13:54;23.10;99.90
20654;DHT22;21083;50.898;4.902;2022-08-01T08:16:22;23.10;99.90
20654;DHT22;21083;50.898;4.902;2022-08-01T08:18:49;23.20;99.90
20654;DHT22;21083;50.898;4.902;2022-08-01T08:21:16;23.10;99.90
20654;DHT22;21083;50.898;4.902;2022-08-01T08:23:43;23.20;99.90
20654;DHT22;21083;50.898;4.902;2022-08-01T08:26:27;23.30;99.90
20654;DHT22;21083;50.898;4.902;2022-08-01T08:28:54;23.30;99.90
20654;DHT22;21083;50.898;4.902;2022-08-01T08:31:22;23.10;99.90
20654;DHT22;21083;50.898;4.902;2022-08-01T08:33:49;23.30;99.90
20654;DHT22;21083;50.898;4.902;2022-08-01T08:36:16;23.50;99.90
20654;DHT22;21083;50.898;4.902;2022-08-01T08:38:43;23.60;99.90
20654;DHT22;21083;50.898;4.902;2022-08-01T08:41:10;23.80;99.90
20654;DHT22;21083;50.898;4.902;2022-08-01T08:43:37;24.00;99.90
20654;DHT22;21083;50.898;4.902;2022-08-01T08:46:05;23.90;99.90
20654;DHT22;21083;50.898;4.902;2022-08-01T08:48:37;23.90;99.90
20654;DHT22;21083;50.898;4.902;2022-08-01T08:51:06;24.10;99.90
20654;DHT22;21083;50.898;4.902;2022-08-01T08:53:35;24.30;99.90
20654;DHT22;21083;50.898;4.902;2022-08-01T08:56:02;24.40;99.90
20654;DHT22;21083;50.898;4.902;2022-08-01T08:58:30;24.20;99.90
20654;DHT22;21083;50.898;4.902;2022-08-01T09:00:59;24.40;99.90
20654;DHT22;21083;50.898;4.902;2022-08-01T09:03:26;24.40;99.90
20654;DHT22;21083;50.898;4.902;2022-08-01T09:05:55;24.20;99.90
20654;DHT22;21083;50.898;4.902;2022-08-01T09:08:21;23.90;99.90
20654;DHT22;21083;50.898;4.902;2022-08-01T09:10:48;24.00;99.90
20654;DHT22;21083;50.898;4.902;2022-08-01T09:13:15;24.40;99.90
20654;DHT22;21083;50.898;4.902;2022-08-01T09:15:43;24.50;99.90
20654;DHT22;21083;50.898;4.902;2022-08-01T09:18:27;24.70;99.90
20654;DHT22;21083;50.898;4.902;2022-08-01T09:21:13;24.80;99.90
20654;DHT22;21083;50.898;4.902;2022-08-01T09:23:44;24.90;99.90
20654;DHT22;21083;50.898;4.902;2022-08-01T09:26:12;24.80;99.90
20654;DHT22;21083;50.898;4.902;2022-08-01T09:28:39;24.80;99.90
20654;DHT22;21083;50.898;4.902;2022-08-01T09:31:09;24.70;99.90
20654;DHT22;21083;50.898;4.902;2022-08-01T09:33:49;24.80;99.90
20654;DHT22;21083;50.898;4.902;2022-08-01T09:36:18;24.80;99.90
20654;DHT22;21083;50.898;4.902;2022-08-01T09:38:46;24.90;99.90
20654;DHT22;21083;50.898;4.902;2022-08-01T09:41:12;25.00;99.90
20654;DHT22;21083;50.898;4.902;2022-08-01T09:43:39;25.60;99.90
20654;DHT22;21083;50.898;4.902;2022-08-01T09:46:10;26.00;99.90
20654;DHT22;21083;50.898;4.902;2022-08-01T09:48:38;26.30;99.90
20654;DHT22;21083;50.898;4.902;2022-08-01T09:51:06;26.40;99.90
20654;DHT22;21083;50.898;4.902;2022-08-01T09:53:43;26.50;99.90
20654;DHT22;21083;50.898;4.902;2022-08-01T09:56:11;26.30;99.90
20654;DHT22;21083;50.898;4.902;2022-08-01T09:58:52;26.40;99.90
20654;DHT22;21083;50.898;4.902;2022-08-01T10:01:20;26.30;99.90
20654;DHT22;21083;50.898;4.902;2022-08-01T10:04:04;26.50;99.90
20654;DHT22;21083;50.898;4.902;2022-08-01T10:06:31;26.70;99.90
20654;DHT22;21083;50.898;4.902;2022-08-01T10:09:00;26.80;99.90
20654;DHT22;21083;50.898;4.902;2022-08-01T10:11:28;26.70;99.90
20654;DHT22;21083;50.898;4.902;2022-08-01T10:13:59;26.60;99.90
20654;DHT22;21083;50.898;4.902;2022-08-01T10:16:27;26.60;99.90
20654;DHT22;21083;50.898;4.902;2022-08-01T10:18:55;26.40;99.90
20654;DHT22;21083;50.898;4.902;2022-08-01T10:21:24;26.30;99.90
20654;DHT22;21083;50.898;4.902;2022-08-01T10:23:54;26.30;99.90
20654;DHT22;21083;50.898;4.902;2022-08-01T10:26:25;26.40;99.90
20654;DHT22;21083;50.898;4.902;2022-08-01T10:28:52;26.30;99.90
20654;DHT22;21083;50.898;4.902;2022-08-01T10:31:20;26.20;99.90
20654;DHT22;21083;50.898;4.902;2022-08-01T10:33:47;26.20;99.90
20654;DHT22;21083;50.898;4.902;2022-08-01T10:36:17;26.30;99.90
20654;DHT22;21083;50.898;4.902;2022-08-01T10:38:46;26.70;99.90
20654;DHT22;21083;50.898;4.902;2022-08-01T10:41:13;27.10;99.90
20654;DHT22;21083;50.898;4.902;2022-08-01T10:43:43;27.40;99.90
20654;DHT22;21083;50.898;4.902;2022-08-01T10:46:10;27.40;99.90
20654;DHT22;21083;50.898;4.902;2022-08-01T10:48:43;27.60;99.90
20654;DHT22;21083;50.898;4.902;2022-08-01T10:51:12;27.70;99.90
20654;DHT22;21083;50.898;4.902;2022-08-01T10:53:47;27.80;99.90
20654;DHT22;21083;50.898;4.902;2022-08-01T10:56:14;28.00;99.90
20654;DHT22;21083;50.898;4.902;2022-08-01T10:58:46;28.10;99.90
20654;DHT22;21083;50.898;4.902;2022-08-01T11:01:24;28.10;99.90
20654;DHT22;21083;50.898;4.902;2022-08-01T11:04:05;27.90;99.90
20654;DHT22;21083;50.898;4.902;2022-08-01T11:06:43;27.70;99.90
20654;DHT22;21083;50.898;4.902;2022-08-01T11:09:24;27.60;99.90
20654;DHT22;21083;50.898;4.902;2022-08-01T11:12:02;27.70;99.90
20654;DHT22;21083;50.898;4.902;2022-08-01T11:14:32;27.60;99.90
20654;DHT22;21083;50.898;4.902;2022-08-01T11:17:30;27.90;99.90
20654;DHT22;21083;50.898;4.902;2022-08-01T11:20:05;27.90;99.90
20654;DHT22;21083;50.898;4.902;2022-08-01T11:22:32;27.90;99.90
20654;DHT22;21083;50.898;4.902;2022-08-01T11:25:19;27.80;99.90
20654;DHT22;21083;50.898;4.902;2022-08-01T11:27:46;28.00;99.90
20654;DHT22;21083;50.898;4.902;2022-08-01T11:30:24;28.30;99.90
20654;DHT22;21083;50.898;4.902;2022-08-01T11:32:53;28.40;99.90
20654;DHT22;21083;50.898;4.902;2022-08-01T11:35:21;28.40;99.90
20654;DHT22;21083;50.898;4.902;2022-08-01T11:37:52;28.40;99.90
20654;DHT22;21083;50.898;4.902;2022-08-01T11:40:22;28.30;99.90
20654;DHT22;21083;50.898;4.902;2022-08-01T11:45:48;27.60;99.90
20654;DHT22;21083;50.898;4.902;2022-08-01T11:48:19;27.70;99.90
20654;DHT22;21083;50.898;4.902;2022-08-01T11:50:46;28.00;99.90
20654;DHT22;21083;50.898;4.902;2022-08-01T11:53:13;28.40;99.90
20654;DHT22;21083;50.898;4.902;2022-08-01T11:55:45;28.50;99.90
20654;DHT22;21083;50.898;4.902;2022-08-01T11:58:14;28.80;99.90
20654;DHT22;21083;50.898;4.902;2022-08-01T12:00:42;28.90;99.90
20654;DHT22;21083;50.898;4.902;2022-08-01T12:03:24;28.60;99.90
20654;DHT22;21083;50.898;4.902;2022-08-01T12:05:51;28.50;99.90
20654;DHT22;21083;50.898;4.902;2022-08-01T12:08:24;28.60;99.90
20654;DHT22;21083;50.898;4.902;2022-08-01T12:10:51;28.60;99.90
20654;DHT22;21083;50.898;4.902;2022-08-01T12:13:18;28.50;99.90
20654;DHT22;21083;50.898;4.902;2022-08-01T12:15:47;28.50;99.90
20654;DHT22;21083;50.898;4.902;2022-08-01T12:18:17;28.70;99.90
20654;DHT22;21083;50.898;4.902;2022-08-01T12:20:45;28.50;99.90
20654;DHT22;21083;50.898;4.902;2022-08-01T12:23:14;28.70;99.90
20654;DHT22;21083;50.898;4.902;2022-08-01T12:25:41;28.90;99.90
20654;DHT22;21083;50.898;4.902;2022-08-01T12:28:11;29.20;99.90
20654;DHT22;21083;50.898;4.902;2022-08-01T12:30:39;29.30;99.90
20654;DHT22;21083;50.898;4.902;2022-08-01T12:33:08;29.40;99.90
20654;DHT22;21083;50.898;4.902;2022-08-01T12:35:38;29.70;99.90
20654;DHT22;21083;50.898;4.902;2022-08-01T12:38:14;30.10;99.90
20654;DHT22;21083;50.898;4.902;2022-08-01T12:40:43;30.30;99.90
20654;DHT22;21083;50.898;4.902;2022-08-01T12:43:17;30.20;99.90
20654;DHT22;21083;50.898;4.902;2022-08-01T12:45:46;29.40;99.90
20654;DHT22;21083;50.898;4.902;2022-08-01T12:48:15;29.50;99.90
20654;DHT22;21083;50.898;4.902;2022-08-01T12:50:45;29.60;99.90
20654;DHT22;21083;50.898;4.902;2022-08-01T12:53:12;29.90;99.90
20654;DHT22;21083;50.898;4.902;2022-08-01T12:55:44;29.60;99.90
20654;DHT22;21083;50.898;4.902;2022-08-01T12:58:13;29.90;99.90
20654;DHT22;21083;50.898;4.902;2022-08-01T13:00:41;29.80;99.90
20654;DHT22;21083;50.898;4.902;2022-08-01T13:03:11;30.00;99.90
20654;DHT22;21083;50.898;4.902;2022-08-01T13:05:46;29.80;99.90
20654;DHT22;21083;50.898;4.902;2022-08-01T13:08:15;29.80;99.90
20654;DHT22;21083;50.898;4.902;2022-08-01T13:10:43;29.80;99.90
20654;DHT22;21083;50.898;4.902;2022-08-01T13:13:11;29.90;99.90
20654;DHT22;21083;50.898;4.902;2022-08-01T13:15:40;29.80;99.90
20654;DHT22;21083;50.898;4.902;2022-08-01T13:18:25;29.80;99.90
20654;DHT22;21083;50.898;4.902;2022-08-01T13:21:10;29.70;99.90
20654;DHT22;21083;50.898;4.902;2022-08-01T13:23:37;29.60;99.90
20654;DHT22;21083;50.898;4.902;2022-08-01T13:26:04;29.30;99.90
20654;DHT22;21083;50.898;4.902;2022-08-01T13:28:32;29.80;99.90
20654;DHT22;21083;50.898;4.902;2022-08-01T13:31:02;30.10;99.90
20654;DHT22;21083;50.898;4.902;2022-08-01T13:33:40;30.00;99.90
20654;DHT22;21083;50.898;4.902;2022-08-01T13:36:07;30.60;99.90
20654;DHT22;21083;50.898;4.902;2022-08-01T13:38:36;30.90;99.90
20654;DHT22;21083;50.898;4.902;2022-08-01T13:41:20;31.40;99.90
20654;DHT22;21083;50.898;4.902;2022-08-01T13:43:47;31.20;99.90
20654;DHT22;21083;50.898;4.902;2022-08-01T13:46:14;31.40;99.90
20654;DHT22;21083;50.898;4.902;2022-08-01T13:48:41;31.60;99.90
20654;DHT22;21083;50.898;4.902;2022-08-01T13:51:08;31.80;99.90
20654;DHT22;21083;50.898;4.902;2022-08-01T13:53:39;32.10;99.90
20654;DHT22;21083;50.898;4.902;2022-08-01T13:56:05;32.50;99.90
20654;DHT22;21083;50.898;4.902;2022-08-01T13:58:32;32.70;99.90
20654;DHT22;21083;50.898;4.902;2022-08-01T14:00:59;33.00;99.90
20654;DHT22;21083;50.898;4.902;2022-08-01T14:03:26;33.30;99.90
20654;DHT22;21083;50.898;4.902;2022-08-01T14:05:53;33.30;99.90
20654;DHT22;21083;50.898;4.902;2022-08-01T14:08:20;33.30;99.90
20654;DHT22;21083;50.898;4.902;2022-08-01T14:10:48;33.10;99.90
20654;DHT22;21083;50.898;4.902;2022-08-01T14:13:15;33.00;99.90
20654;DHT22;21083;50.898;4.902;2022-08-01T14:15:42;32.60;99.90
20654;DHT22;21083;50.898;4.902;2022-08-01T14:18:10;32.10;99.90
20654;DHT22;21083;50.898;4.902;2022-08-01T14:20:38;32.10;99.90
20654;DHT22;21083;50.898;4.902;2022-08-01T14:23:06;32.00;99.90
20654;DHT22;21083;50.898;4.902;2022-08-01T14:25:32;31.60;99.90
20654;DHT22;21083;50.898;4.902;2022-08-01T14:28:01;31.10;99.90
20654;DHT22;21083;50.898;4.902;2022-08-01T14:30:28;31.30;99.90
20654;DHT22;21083;50.898;4.902;2022-08-01T14:32:55;31.70;99.90
20654;DHT22;21083;50.898;4.902;2022-08-01T14:35:22;31.70;99.90
20654;DHT22;21083;50.898;4.902;2022-08-01T14:37:48;31.70;99.90
20654;DHT22;21083;50.898;4.902;2022-08-01T14:40:15;31.50;99.90
20654;DHT22;21083;50.898;4.902;2022-08-01T14:42:42;32.10;99.90
20654;DHT22;21083;50.898;4.902;2022-08-01T14:45:12;33.00;99.90
20654;DHT22;21083;50.898;4.902;2022-08-01T14:47:40;33.30;99.90
20654;DHT22;21083;50.898;4.902;2022-08-01T14:50:10;33.50;99.90
20654;DHT22;21083;50.898;4.902;2022-08-01T14:52:37;33.70;99.90
20654;DHT22;21083;50.898;4.902;2022-08-01T14:55:08;33.80;99.90
20654;DHT22;21083;50.898;4.902;2022-08-01T14:57:35;33.80;99.90
20654;DHT22;21083;50.898;4.902;2022-08-01T15:00:04;33.80;99.90
20654;DHT22;21083;50.898;4.902;2022-08-01T15:02:33;33.90;99.90
20654;DHT22;21083;50.898;4.902;2022-08-01T15:05:01;33.60;99.90
20654;DHT22;21083;50.898;4.902;2022-08-01T15:07:27;32.80;99.90
20654;DHT22;21083;50.898;4.902;2022-08-01T15:09:54;32.60;99.90
20654;DHT22;21083;50.898;4.902;2022-08-01T15:12:22;32.60;99.90
20654;DHT22;21083;50.898;4.902;2022-08-01T15:14:48;33.00;99.90
20654;DHT22;21083;50.898;4.902;2022-08-01T15:17:16;33.30;99.90
20654;DHT22;21083;50.898;4.902;2022-08-01T15:19:46;33.40;99.90
20654;DHT22;21083;50.898;4.902;2022-08-01T15:22:13;33.60;99.90
20654;DHT22;21083;50.898;4.902;2022-08-01T15:24:40;33.80;99.90
20654;DHT22;21083;50.898;4.902;2022-08-01T15:27:08;33.90;99.90
20654;DHT22;21083;50.898;4.902;2022-08-01T15:29:35;33.60;99.90
20654;DHT22;21083;50.898;4.902;2022-08-01T15:32:03;33.40;99.90
20654;DHT22;21083;50.898;4.902;2022-08-01T15:34:31;33.30;99.90
20654;DHT22;21083;50.898;4.902;2022-08-01T15:37:00;32.30;99.90
20654;DHT22;21083;50.898;4.902;2022-08-01T15:39:27;32.20;99.90
20654;DHT22;21083;50.898;4.902;2022-08-01T15:41:54;32.10;99.90
20654;DHT22;21083;50.898;4.902;2022-08-01T15:44:21;32.20;99.90
20654;DHT22;21083;50.898;4.902;2022-08-01T15:46:48;32.40;99.90
20654;DHT22;21083;50.898;4.902;2022-08-01T15:49:15;32.40;99.90